sensor_id;sensor_type;location;lat;lon;timestamp;P1;durP1;ratioP1;P2;durP2;ratioP2
19617;SDS011;9956;51.006;13.670;2022-07-22T00:01:01;9.02;;;8.23;;
19617;SDS011;9956;51.006;13.670;2022-07-22T00:06:01;8.75;;;7.95;;
19617;SDS011;9956;51.006;13.670;2022-07-22T00:11:02;9.02;;;8.13;;
19617;SDS011;9956;51.006;13.670;2022-07-22T00:16:02;9.77;;;8.77;;
19617;SDS011;9956;51.006;13.670;2022-07-22T00:21:03;9.52;;;8.73;;
19617;SDS011;9956;51.006;13.670;2022-07-22T00:26:04;9.05;;;8.27;;
19617;SDS011;9956;51.006;13.670;2022-07-22T00:31:05;9.73;;;8.88;;
19617;SDS011;9956;51.006;13.670;2022-07-22T00:36:07;10.25;;;9.13;;
19617;SDS011;9956;51.006;13.670;2022-07-22T00:41:08;10.45;;;8.98;;
19617;SDS011;9956;51.006;13.670;2022-07-22T00:46:08;8.48;;;7.47;;
19617;SDS011;9956;51.006;13.670;2022-07-22T00:51:08;9.85;;;8.95;;
19617;SDS011;9956;51.006;13.670;2022-07-22T00:56:09;9.15;;;8.32;;
19617;SDS011;9956;51.006;13.670;2022-07-22T01:01:10;9.30;;;8.40;;
19617;SDS011;9956;51.006;13.670;2022-07-22T01:06:10;9.27;;;8.38;;
19617;SDS011;9956;51.006;13.670;2022-07-22T01:11:15;8.77;;;7.93;;
19617;SDS011;9956;51.006;13.670;2022-07-22T01:16:17;9.27;;;8.25;;
19617;SDS011;9956;51.006;13.670;2022-07-22T01:21:18;8.48;;;7.72;;
19617;SDS011;9956;51.006;13.670;2022-07-22T01:26:19;7.47;;;6.80;;
19617;SDS011;9956;51.006;13.670;2022-07-22T01:31:19;7.72;;;7.03;;
19617;SDS011;9956;51.006;13.670;2022-07-22T01:36:20;7.68;;;6.20;;
19617;SDS011;9956;51.006;13.670;2022-07-22T01:41:20;7.07;;;6.25;;
19617;SDS011;9956;51.006;13.670;2022-07-22T01:46:23;7.18;;;6.47;;
19617;SDS011;9956;51.006;13.670;2022-07-22T01:51:24;7.35;;;6.65;;
19617;SDS011;9956;51.006;13.670;2022-07-22T01:56:24;6.57;;;5.97;;
19617;SDS011;9956;51.006;13.670;2022-07-22T02:01:25;9.77;;;6.22;;
19617;SDS011;9956;51.006;13.670;2022-07-22T02:06:25;6.25;;;5.65;;
19617;SDS011;9956;51.006;13.670;2022-07-22T02:11:29;5.30;;;4.80;;
19617;SDS011;9956;51.006;13.670;2022-07-22T02:16:30;5.38;;;4.93;;
19617;SDS011;9956;51.006;13.670;2022-07-22T02:21:32;5.50;;;4.97;;
19617;SDS011;9956;51.006;13.670;2022-07-22T02:26:33;6.18;;;5.57;;
19617;SDS011;9956;51.006;13.670;2022-07-22T02:31:34;6.53;;;5.38;;
19617;SDS011;9956;51.006;13.670;2022-07-22T02:36:35;6.13;;;5.57;;
19617;SDS011;9956;51.006;13.670;2022-07-22T02:41:35;6.03;;;5.43;;
19617;SDS011;9956;51.006;13.670;2022-07-22T02:46:36;6.28;;;5.53;;
19617;SDS011;9956;51.006;13.670;2022-07-22T02:51:47;6.60;;;5.88;;
19617;SDS011;9956;51.006;13.670;2022-07-22T02:56:48;6.45;;;5.90;;
19617;SDS011;9956;51.006;13.670;2022-07-22T03:01:48;6.43;;;5.82;;
19617;SDS011;9956;51.006;13.670;2022-07-22T03:06:48;7.10;;;6.53;;
19617;SDS011;9956;51.006;13.670;2022-07-22T03:11:52;6.18;;;5.68;;
19617;SDS011;9956;51.006;13.670;2022-07-22T03:16:54;6.78;;;6.25;;
19617;SDS011;9956;51.006;13.670;2022-07-22T03:21:55;7.30;;;6.32;;
19617;SDS011;9956;51.006;13.670;2022-07-22T03:26:56;6.60;;;6.00;;
19617;SDS011;9956;51.006;13.670;2022-07-22T03:31:56;6.40;;;5.80;;
19617;SDS011;9956;51.006;13.670;2022-07-22T03:37:11;6.80;;;6.20;;
19617;SDS011;9956;51.006;13.670;2022-07-22T03:42:14;7.50;;;6.90;;
19617;SDS011;9956;51.006;13.670;2022-07-22T03:47:20;7.10;;;6.45;;
19617;SDS011;9956;51.006;13.670;2022-07-22T03:52:22;9.52;;;8.52;;
19617;SDS011;9956;51.006;13.670;2022-07-22T03:57:23;8.18;;;7.43;;
19617;SDS011;9956;51.006;13.670;2022-07-22T04:02:34;8.57;;;7.88;;
19617;SDS011;9956;51.006;13.670;2022-07-22T04:07:35;8.65;;;7.57;;
19617;SDS011;9956;51.006;13.670;2022-07-22T04:12:36;14.50;;;13.07;;
19617;SDS011;9956;51.006;13.670;2022-07-22T04:17:48;8.85;;;7.97;;
19617;SDS011;9956;51.006;13.670;2022-07-22T04:22:49;8.18;;;7.43;;
19617;SDS011;9956;51.006;13.670;2022-07-22T04:27:53;8.60;;;6.95;;
19617;SDS011;9956;51.006;13.670;2022-07-22T04:32:54;7.00;;;6.32;;
19617;SDS011;9956;51.006;13.670;2022-07-22T04:37:54;6.88;;;6.15;;
19617;SDS011;9956;51.006;13.670;2022-07-22T04:42:56;7.07;;;6.38;;
19617;SDS011;9956;51.006;13.670;2022-07-22T04:47:57;6.05;;;5.55;;
19617;SDS011;9956;51.006;13.670;2022-07-22T04:52:57;6.45;;;5.72;;
19617;SDS011;9956;51.006;13.670;2022-07-22T04:57:59;5.45;;;5.05;;
19617;SDS011;9956;51.006;13.670;2022-07-22T05:03:00;5.88;;;5.47;;
19617;SDS011;9956;51.006;13.670;2022-07-22T05:08:01;6.40;;;5.90;;
19617;SDS011;9956;51.006;13.670;2022-07-22T05:13:02;6.07;;;5.57;;
19617;SDS011;9956;51.006;13.670;2022-07-22T05:18:03;6.28;;;5.68;;
19617;SDS011;9956;51.006;13.670;2022-07-22T05:23:06;5.63;;;5.13;;
19617;SDS011;9956;51.006;13.670;2022-07-22T05:28:09;6.45;;;5.35;;
19617;SDS011;9956;51.006;13.670;2022-07-22T05:33:13;7.85;;;6.38;;
19617;SDS011;9956;51.006;13.670;2022-07-22T05:38:22;7.30;;;6.60;;
19617;SDS011;9956;51.006;13.670;2022-07-22T05:43:23;7.88;;;6.20;;
19617;SDS011;9956;51.006;13.670;2022-07-22T05:48:24;6.72;;;6.03;;
19617;SDS011;9956;51.006;13.670;2022-07-22T05:53:26;7.15;;;5.43;;
19617;SDS011;9956;51.006;13.670;2022-07-22T05:58:27;6.95;;;5.95;;
19617;SDS011;9956;51.006;13.670;2022-07-22T06:03:28;10.02;;;5.80;;
19617;SDS011;9956;51.006;13.670;2022-07-22T06:08:29;6.63;;;5.88;;
19617;SDS011;9956;51.006;13.670;2022-07-22T06:13:30;9.52;;;6.13;;
19617;SDS011;9956;51.006;13.670;2022-07-22T06:18:30;6.95;;;5.93;;
19617;SDS011;9956;51.006;13.670;2022-07-22T06:23:32;5.68;;;5.07;;
19617;SDS011;9956;51.006;13.670;2022-07-22T06:28:32;6.60;;;5.78;;
19617;SDS011;9956;51.006;13.670;2022-07-22T06:33:33;7.63;;;5.35;;
19617;SDS011;9956;51.006;13.670;2022-07-22T06:38:34;4.88;;;4.47;;
19617;SDS011;9956;51.006;13.670;2022-07-22T06:43:49;5.50;;;5.00;;
19617;SDS011;9956;51.006;13.670;2022-07-22T06:49:06;6.85;;;5.00;;
19617;SDS011;9956;51.006;13.670;2022-07-22T06:54:09;6.97;;;5.65;;
19617;SDS011;9956;51.006;13.670;2022-07-22T06:59:09;5.68;;;5.07;;
19617;SDS011;9956;51.006;13.670;2022-07-22T07:04:10;6.30;;;5.80;;
19617;SDS011;9956;51.006;13.670;2022-07-22T07:09:11;6.65;;;5.60;;
19617;SDS011;9956;51.006;13.670;2022-07-22T07:14:15;6.53;;;5.78;;
19617;SDS011;9956;51.006;13.670;2022-07-22T07:19:15;6.97;;;6.38;;
19617;SDS011;9956;51.006;13.670;2022-07-22T07:24:16;6.38;;;5.88;;
19617;SDS011;9956;51.006;13.670;2022-07-22T07:29:16;7.10;;;6.40;;
19617;SDS011;9956;51.006;13.670;2022-07-22T07:34:17;7.70;;;6.03;;
19617;SDS011;9956;51.006;13.670;2022-07-22T07:39:17;6.65;;;5.97;;
19617;SDS011;9956;51.006;13.670;2022-07-22T07:44:18;5.75;;;5.25;;
19617;SDS011;9956;51.006;13.670;2022-07-22T07:49:18;7.22;;;6.53;;
19617;SDS011;9956;51.006;13.670;2022-07-22T07:54:19;6.50;;;5.90;;
19617;SDS011;9956;51.006;13.670;2022-07-22T07:59:20;6.50;;;6.00;;
19617;SDS011;9956;51.006;13.670;2022-07-22T08:04:21;6.28;;;5.68;;
19617;SDS011;9956;51.006;13.670;2022-07-22T08:09:22;5.15;;;4.75;;
19617;SDS011;9956;51.006;13.670;2022-07-22T08:14:23;6.40;;;5.80;;
19617;SDS011;9956;51.006;13.670;2022-07-22T08:19:36;6.93;;;5.93;;
19617;SDS011;9956;51.006;13.670;2022-07-22T08:24:37;6.68;;;6.00;;
19617;SDS011;9956;51.006;13.670;2022-07-22T08:29:44;7.85;;;5.45;;
19617;SDS011;9956;51.006;13.670;2022-07-22T08:34:44;5.45;;;4.95;;
19617;SDS011;9956;51.006;13.670;2022-07-22T08:39:45;5.90;;;5.38;;
19617;SDS011;9956;51.006;13.670;2022-07-22T08:44:46;6.43;;;5.57;;
19617;SDS011;9956;51.006;13.670;2022-07-22T08:49:47;5.47;;;5.00;;
19617;SDS011;9956;51.006;13.670;2022-07-22T08:55:13;6.63;;;5.18;;
19617;SDS011;9956;51.006;13.670;2022-07-22T09:00:16;5.75;;;5.20;;
19617;SDS011;9956;51.006;13.670;2022-07-22T09:05:21;6.57;;;5.20;;
19617;SDS011;9956;51.006;13.670;2022-07-22T09:10:21;7.78;;;5.90;;
19617;SDS011;9956;51.006;13.670;2022-07-22T09:15:46;6.03;;;5.53;;
19617;SDS011;9956;51.006;13.670;2022-07-22T09:21:14;6.47;;;5.88;;
19617;SDS011;9956;51.006;13.670;2022-07-22T09:26:34;8.43;;;5.88;;
19617;SDS011;9956;51.006;13.670;2022-07-22T09:31:56;8.10;;;5.82;;
19617;SDS011;9956;51.006;13.670;2022-07-22T09:37:17;7.00;;;6.35;;
19617;SDS011;9956;51.006;13.670;2022-07-22T09:42:20;6.95;;;6.28;;
19617;SDS011;9956;51.006;13.670;2022-07-22T09:47:27;6.43;;;5.80;;
19617;SDS011;9956;51.006;13.670;2022-07-22T09:53:06;6.93;;;5.78;;
19617;SDS011;9956;51.006;13.670;2022-07-22T09:58:17;7.15;;;6.20;;
19617;SDS011;9956;51.006;13.670;2022-07-22T10:03:18;7.57;;;6.45;;
19617;SDS011;9956;51.006;13.670;2022-07-22T10:08:27;7.65;;;6.85;;
19617;SDS011;9956;51.006;13.670;2022-07-22T10:13:28;6.65;;;6.05;;
19617;SDS011;9956;51.006;13.670;2022-07-22T10:18:30;6.50;;;6.00;;
19617;SDS011;9956;51.006;13.670;2022-07-22T10:23:32;6.32;;;5.72;;
19617;SDS011;9956;51.006;13.670;2022-07-22T10:28:36;7.22;;;5.95;;
19617;SDS011;9956;51.006;13.670;2022-07-22T10:33:37;5.80;;;5.15;;
19617;SDS011;9956;51.006;13.670;2022-07-22T10:38:38;6.10;;;5.60;;
19617;SDS011;9956;51.006;13.670;2022-07-22T10:58:58;7.47;;;5.97;;
19617;SDS011;9956;51.006;13.670;2022-07-22T11:04:11;6.18;;;5.63;;
19617;SDS011;9956;51.006;13.670;2022-07-22T11:09:20;6.07;;;5.47;;
19617;SDS011;9956;51.006;13.670;2022-07-22T11:14:29;6.65;;;6.05;;
19617;SDS011;9956;51.006;13.670;2022-07-22T11:19:31;6.90;;;6.30;;
19617;SDS011;9956;51.006;13.670;2022-07-22T11:24:32;5.53;;;4.93;;
19617;SDS011;9956;51.006;13.670;2022-07-22T11:29:34;5.72;;;5.28;;
19617;SDS011;9956;51.006;13.670;2022-07-22T11:34:38;5.85;;;5.38;;
19617;SDS011;9956;51.006;13.670;2022-07-22T11:39:42;6.35;;;5.85;;
19617;SDS011;9956;51.006;13.670;2022-07-22T11:44:43;6.13;;;5.05;;
19617;SDS011;9956;51.006;13.670;2022-07-22T11:49:45;6.45;;;5.05;;
19617;SDS011;9956;51.006;13.670;2022-07-22T11:54:47;5.15;;;4.60;;
19617;SDS011;9956;51.006;13.670;2022-07-22T11:59:47;7.25;;;5.18;;
19617;SDS011;9956;51.006;13.670;2022-07-22T12:04:48;5.77;;;4.77;;
19617;SDS011;9956;51.006;13.670;2022-07-22T12:09:48;5.28;;;4.78;;
19617;SDS011;9956;51.006;13.670;2022-07-22T12:14:49;5.83;;;5.10;;
19617;SDS011;9956;51.006;13.670;2022-07-22T12:19:49;6.07;;;5.47;;
19617;SDS011;9956;51.006;13.670;2022-07-22T12:24:57;5.53;;;4.97;;
19617;SDS011;9956;51.006;13.670;2022-07-22T12:29:59;4.93;;;4.43;;
19617;SDS011;9956;51.006;13.670;2022-07-22T12:35:00;4.85;;;4.30;;
19617;SDS011;9956;51.006;13.670;2022-07-22T12:40:10;6.25;;;4.85;;
19617;SDS011;9956;51.006;13.670;2022-07-22T12:45:18;4.45;;;3.95;;
19617;SDS011;9956;51.006;13.670;2022-07-22T12:55:27;4.38;;;3.97;;
19617;SDS011;9956;51.006;13.670;2022-07-22T13:00:31;4.15;;;3.75;;
19617;SDS011;9956;51.006;13.670;2022-07-22T13:05:37;6.43;;;4.13;;
19617;SDS011;9956;51.006;13.670;2022-07-22T13:10:38;5.05;;;4.47;;
19617;SDS011;9956;51.006;13.670;2022-07-22T13:15:38;4.57;;;3.53;;
19617;SDS011;9956;51.006;13.670;2022-07-22T13:20:39;6.20;;;3.90;;
19617;SDS011;9956;51.006;13.670;2022-07-22T13:25:41;7.63;;;3.92;;
19617;SDS011;9956;51.006;13.670;2022-07-22T13:30:43;4.22;;;3.78;;
19617;SDS011;9956;51.006;13.670;2022-07-22T13:35:43;4.87;;;3.47;;
19617;SDS011;9956;51.006;13.670;2022-07-22T13:40:44;4.15;;;3.70;;
19617;SDS011;9956;51.006;13.670;2022-07-22T13:45:51;4.05;;;3.65;;
19617;SDS011;9956;51.006;13.670;2022-07-22T13:50:53;3.97;;;3.67;;
19617;SDS011;9956;51.006;13.670;2022-07-22T13:55:53;3.73;;;3.43;;
19617;SDS011;9956;51.006;13.670;2022-07-22T14:00:54;3.77;;;3.47;;
19617;SDS011;9956;51.006;13.670;2022-07-22T14:05:54;5.03;;;3.13;;
19617;SDS011;9956;51.006;13.670;2022-07-22T14:10:55;3.83;;;3.30;;
19617;SDS011;9956;51.006;13.670;2022-07-22T14:15:55;4.67;;;3.40;;
19617;SDS011;9956;51.006;13.670;2022-07-22T14:20:55;3.75;;;3.45;;
19617;SDS011;9956;51.006;13.670;2022-07-22T14:25:56;3.67;;;3.30;;
19617;SDS011;9956;51.006;13.670;2022-07-22T14:30:57;3.90;;;3.42;;
19617;SDS011;9956;51.006;13.670;2022-07-22T14:35:58;3.42;;;3.15;;
19617;SDS011;9956;51.006;13.670;2022-07-22T14:40:58;3.60;;;3.30;;
19617;SDS011;9956;51.006;13.670;2022-07-22T14:45:59;3.47;;;3.10;;
19617;SDS011;9956;51.006;13.670;2022-07-22T14:51:01;4.07;;;3.20;;
19617;SDS011;9956;51.006;13.670;2022-07-22T14:56:01;3.93;;;3.40;;
19617;SDS011;9956;51.006;13.670;2022-07-22T15:01:01;4.78;;;2.95;;
19617;SDS011;9956;51.006;13.670;2022-07-22T15:06:02;3.60;;;3.27;;
19617;SDS011;9956;51.006;13.670;2022-07-22T15:11:02;5.83;;;3.27;;
19617;SDS011;9956;51.006;13.670;2022-07-22T15:16:06;3.13;;;2.72;;
19617;SDS011;9956;51.006;13.670;2022-07-22T15:21:06;4.82;;;3.15;;
19617;SDS011;9956;51.006;13.670;2022-07-22T15:26:07;5.53;;;3.47;;
19617;SDS011;9956;51.006;13.670;2022-07-22T15:31:07;3.20;;;2.90;;
19617;SDS011;9956;51.006;13.670;2022-07-22T15:36:08;3.10;;;2.80;;
19617;SDS011;9956;51.006;13.670;2022-07-22T15:41:09;3.70;;;2.90;;
19617;SDS011;9956;51.006;13.670;2022-07-22T15:46:09;3.28;;;2.95;;
19617;SDS011;9956;51.006;13.670;2022-07-22T15:51:10;3.30;;;3.00;;
19617;SDS011;9956;51.006;13.670;2022-07-22T15:56:10;3.22;;;2.88;;
19617;SDS011;9956;51.006;13.670;2022-07-22T16:01:11;3.42;;;2.92;;
19617;SDS011;9956;51.006;13.670;2022-07-22T16:06:13;4.18;;;3.10;;
19617;SDS011;9956;51.006;13.670;2022-07-22T16:11:13;3.05;;;2.80;;
19617;SDS011;9956;51.006;13.670;2022-07-22T16:16:14;3.90;;;2.65;;
19617;SDS011;9956;51.006;13.670;2022-07-22T16:21:14;3.03;;;2.57;;
19617;SDS011;9956;51.006;13.670;2022-07-22T16:26:15;5.57;;;2.80;;
19617;SDS011;9956;51.006;13.670;2022-07-22T16:31:15;2.63;;;2.43;;
19617;SDS011;9956;51.006;13.670;2022-07-22T16:36:16;3.00;;;2.80;;
19617;SDS011;9956;51.006;13.670;2022-07-22T16:41:17;3.20;;;2.90;;
19617;SDS011;9956;51.006;13.670;2022-07-22T16:46:17;4.77;;;2.90;;
19617;SDS011;9956;51.006;13.670;2022-07-22T16:51:17;4.57;;;3.28;;
19617;SDS011;9956;51.006;13.670;2022-07-22T16:56:18;3.60;;;2.90;;
19617;SDS011;9956;51.006;13.670;2022-07-22T17:01:18;3.75;;;3.15;;
19617;SDS011;9956;51.006;13.670;2022-07-22T17:06:19;2.90;;;2.70;;
19617;SDS011;9956;51.006;13.670;2022-07-22T17:11:20;2.95;;;2.60;;
19617;SDS011;9956;51.006;13.670;2022-07-22T17:16:20;3.03;;;2.67;;
19617;SDS011;9956;51.006;13.670;2022-07-22T17:21:21;3.33;;;2.80;;
19617;SDS011;9956;51.006;13.670;2022-07-22T17:26:22;5.70;;;2.55;;
19617;SDS011;9956;51.006;13.670;2022-07-22T17:31:22;2.97;;;2.67;;
19617;SDS011;9956;51.006;13.670;2022-07-22T17:36:23;3.50;;;3.20;;
19617;SDS011;9956;51.006;13.670;2022-07-22T17:41:23;4.00;;;3.22;;
19617;SDS011;9956;51.006;13.670;2022-07-22T17:46:24;6.80;;;2.92;;
19617;SDS011;9956;51.006;13.670;2022-07-22T17:51:24;3.88;;;2.85;;
19617;SDS011;9956;51.006;13.670;2022-07-22T17:56:25;7.13;;;3.15;;
19617;SDS011;9956;51.006;13.670;2022-07-22T18:01:25;3.10;;;2.85;;
19617;SDS011;9956;51.006;13.670;2022-07-22T18:06:26;3.30;;;2.60;;
19617;SDS011;9956;51.006;13.670;2022-07-22T18:11:26;2.60;;;2.40;;
19617;SDS011;9956;51.006;13.670;2022-07-22T18:16:27;3.22;;;2.55;;
19617;SDS011;9956;51.006;13.670;2022-07-22T18:21:27;2.83;;;2.63;;
19617;SDS011;9956;51.006;13.670;2022-07-22T18:26:28;2.90;;;2.70;;
19617;SDS011;9956;51.006;13.670;2022-07-22T18:31:28;4.85;;;3.00;;
19617;SDS011;9956;51.006;13.670;2022-07-22T18:36:28;4.75;;;2.58;;
19617;SDS011;9956;51.006;13.670;2022-07-22T18:41:29;3.55;;;2.80;;
19617;SDS011;9956;51.006;13.670;2022-07-22T18:46:30;6.78;;;2.97;;
19617;SDS011;9956;51.006;13.670;2022-07-22T18:51:30;29.98;;;4.00;;
19617;SDS011;9956;51.006;13.670;2022-07-22T18:56:30;4.70;;;2.65;;
19617;SDS011;9956;51.006;13.670;2022-07-22T19:01:31;4.10;;;2.80;;
19617;SDS011;9956;51.006;13.670;2022-07-22T19:06:32;5.15;;;3.03;;
19617;SDS011;9956;51.006;13.670;2022-07-22T19:11:32;6.55;;;3.17;;
19617;SDS011;9956;51.006;13.670;2022-07-22T19:16:33;5.00;;;2.80;;
19617;SDS011;9956;51.006;13.670;2022-07-22T19:21:34;3.47;;;3.00;;
19617;SDS011;9956;51.006;13.670;2022-07-22T19:26:35;4.28;;;3.00;;
19617;SDS011;9956;51.006;13.670;2022-07-22T19:31:35;3.33;;;2.55;;
19617;SDS011;9956;51.006;13.670;2022-07-22T19:36:35;6.78;;;2.97;;
19617;SDS011;9956;51.006;13.670;2022-07-22T19:41:36;4.07;;;2.63;;
19617;SDS011;9956;51.006;13.670;2022-07-22T19:46:36;4.60;;;4.20;;
19617;SDS011;9956;51.006;13.670;2022-07-22T19:51:37;5.90;;;4.88;;
19617;SDS011;9956;51.006;13.670;2022-07-22T19:56:37;4.68;;;3.85;;
19617;SDS011;9956;51.006;13.670;2022-07-22T20:01:37;4.05;;;3.20;;
19617;SDS011;9956;51.006;13.670;2022-07-22T20:06:38;5.15;;;3.65;;
19617;SDS011;9956;51.006;13.670;2022-07-22T20:11:38;3.70;;;3.35;;
19617;SDS011;9956;51.006;13.670;2022-07-22T20:16:39;5.43;;;4.63;;
19617;SDS011;9956;51.006;13.670;2022-07-22T20:21:39;6.57;;;4.32;;
19617;SDS011;9956;51.006;13.670;2022-07-22T20:26:40;4.43;;;3.63;;
19617;SDS011;9956;51.006;13.670;2022-07-22T20:31:41;4.88;;;3.30;;
19617;SDS011;9956;51.006;13.670;2022-07-22T20:36:42;3.35;;;3.05;;
19617;SDS011;9956;51.006;13.670;2022-07-22T20:41:42;3.55;;;3.22;;
19617;SDS011;9956;51.006;13.670;2022-07-22T20:46:42;3.50;;;2.85;;
19617;SDS011;9956;51.006;13.670;2022-07-22T20:51:43;6.70;;;3.42;;
19617;SDS011;9956;51.006;13.670;2022-07-22T20:56:43;3.38;;;3.08;;
19617;SDS011;9956;51.006;13.670;2022-07-22T21:01:44;3.60;;;3.30;;
19617;SDS011;9956;51.006;13.670;2022-07-22T21:06:44;4.88;;;3.30;;
19617;SDS011;9956;51.006;13.670;2022-07-22T21:11:44;4.22;;;3.65;;
19617;SDS011;9956;51.006;13.670;2022-07-22T21:16:45;3.78;;;3.35;;
19617;SDS011;9956;51.006;13.670;2022-07-22T21:21:45;4.80;;;4.35;;
19617;SDS011;9956;51.006;13.670;2022-07-22T21:26:46;9.77;;;5.13;;
19617;SDS011;9956;51.006;13.670;2022-07-22T21:31:46;6.88;;;5.40;;
19617;SDS011;9956;51.006;13.670;2022-07-22T21:36:47;5.97;;;4.53;;
19617;SDS011;9956;51.006;13.670;2022-07-22T21:41:47;5.57;;;5.00;;
19617;SDS011;9956;51.006;13.670;2022-07-22T21:46:47;6.72;;;5.20;;
19617;SDS011;9956;51.006;13.670;2022-07-22T21:51:48;5.07;;;4.57;;
19617;SDS011;9956;51.006;13.670;2022-07-22T21:56:48;6.70;;;4.90;;
19617;SDS011;9956;51.006;13.670;2022-07-22T22:01:59;4.72;;;4.18;;
19617;SDS011;9956;51.006;13.670;2022-07-22T22:07:00;5.32;;;4.85;;
19617;SDS011;9956;51.006;13.670;2022-07-22T22:12:00;5.30;;;4.35;;
19617;SDS011;9956;51.006;13.670;2022-07-22T22:17:01;4.50;;;4.15;;
19617;SDS011;9956;51.006;13.670;2022-07-22T22:22:03;7.07;;;4.82;;
19617;SDS011;9956;51.006;13.670;2022-07-22T22:27:04;4.43;;;3.78;;
19617;SDS011;9956;51.006;13.670;2022-07-22T22:32:06;5.18;;;4.07;;
19617;SDS011;9956;51.006;13.670;2022-07-22T22:37:07;4.90;;;4.50;;
19617;SDS011;9956;51.006;13.670;2022-07-22T22:42:07;4.80;;;4.47;;
19617;SDS011;9956;51.006;13.670;2022-07-22T22:47:08;5.55;;;4.20;;
19617;SDS011;9956;51.006;13.670;2022-07-22T22:52:08;4.45;;;4.05;;
19617;SDS011;9956;51.006;13.670;2022-07-22T22:57:08;5.20;;;3.78;;
19617;SDS011;9956;51.006;13.670;2022-07-22T23:02:09;4.10;;;3.70;;
19617;SDS011;9956;51.006;13.670;2022-07-22T23:07:10;3.85;;;3.53;;
19617;SDS011;9956;51.006;13.670;2022-07-22T23:12:10;4.18;;;3.78;;
19617;SDS011;9956;51.006;13.670;2022-07-22T23:17:11;4.63;;;4.20;;
19617;SDS011;9956;51.006;13.670;2022-07-22T23:22:11;4.88;;;4.47;;
19617;SDS011;9956;51.006;13.670;2022-07-22T23:27:11;5.53;;;4.40;;
19617;SDS011;9956;51.006;13.670;2022-07-22T23:32:12;4.82;;;4.32;;
19617;SDS011;9956;51.006;13.670;2022-07-22T23:37:12;5.43;;;4.20;;
19617;SDS011;9956;51.006;13.670;2022-07-22T23:42:13;5.35;;;3.90;;
19617;SDS011;9956;51.006;13.670;2022-07-22T23:47:13;4.75;;;4.35;;
19617;SDS011;9956;51.006;13.670;2022-07-22T23:52:14;4.70;;;4.18;;
19617;SDS011;9956;51.006;13.670;2022-07-22T23:57:14;5.30;;;4.72;;
